sensor_id;sensor_type;location;lat;lon;timestamp;P1;durP1;ratioP1;P2;durP2;ratioP2
13228;SDS011;6680;53.220;10.402;2023-06-10T00:01:19;4.93;;;3.30;;
13228;SDS011;6680;53.220;10.402;2023-06-10T00:03:47;4.83;;;3.27;;
13228;SDS011;6680;53.220;10.402;2023-06-10T00:06:15;6.50;;;3.63;;
13228;SDS011;6680;53.220;10.402;2023-06-10T00:08:42;4.40;;;3.30;;
13228;SDS011;6680;53.220;10.402;2023-06-10T00:11:09;7.53;;;3.50;;
13228;SDS011;6680;53.220;10.402;2023-06-10T00:13:36;4.93;;;3.07;;
13228;SDS011;6680;53.220;10.402;2023-06-10T00:16:03;7.70;;;3.83;;
13228;SDS011;6680;53.220;10.402;2023-06-10T00:18:30;5.63;;;4.30;;
13228;SDS011;6680;53.220;10.402;2023-06-10T00:20:57;4.90;;;3.83;;
13228;SDS011;6680;53.220;10.402;2023-06-10T00:23:30;5.13;;;3.70;;
13228;SDS011;6680;53.220;10.402;2023-06-10T00:26:02;4.70;;;4.00;;
13228;SDS011;6680;53.220;10.402;2023-06-10T00:28:29;4.37;;;3.43;;
13228;SDS011;6680;53.220;10.402;2023-06-10T00:30:56;4.97;;;3.40;;
13228;SDS011;6680;53.220;10.402;2023-06-10T00:33:23;8.70;;;4.27;;
13228;SDS011;6680;53.220;10.402;2023-06-10T00:35:49;6.87;;;4.03;;
13228;SDS011;6680;53.220;10.402;2023-06-10T00:38:16;4.73;;;3.63;;
13228;SDS011;6680;53.220;10.402;2023-06-10T00:40:44;5.77;;;3.63;;
13228;SDS011;6680;53.220;10.402;2023-06-10T00:43:11;4.73;;;3.60;;
13228;SDS011;6680;53.220;10.402;2023-06-10T00:45:37;6.70;;;3.40;;
13228;SDS011;6680;53.220;10.402;2023-06-10T00:48:04;4.20;;;3.80;;
13228;SDS011;6680;53.220;10.402;2023-06-10T00:50:32;4.23;;;3.83;;
13228;SDS011;6680;53.220;10.402;2023-06-10T00:52:59;5.03;;;3.53;;
13228;SDS011;6680;53.220;10.402;2023-06-10T00:55:26;8.67;;;3.87;;
13228;SDS011;6680;53.220;10.402;2023-06-10T00:57:54;6.17;;;3.67;;
13228;SDS011;6680;53.220;10.402;2023-06-10T01:00:21;6.73;;;3.70;;
13228;SDS011;6680;53.220;10.402;2023-06-10T01:02:48;6.93;;;3.60;;
13228;SDS011;6680;53.220;10.402;2023-06-10T01:05:17;7.53;;;3.03;;
13228;SDS011;6680;53.220;10.402;2023-06-10T01:07:46;7.43;;;3.43;;
13228;SDS011;6680;53.220;10.402;2023-06-10T01:10:19;4.73;;;3.53;;
13228;SDS011;6680;53.220;10.402;2023-06-10T01:12:52;4.83;;;3.13;;
13228;SDS011;6680;53.220;10.402;2023-06-10T01:15:27;6.60;;;3.60;;
13228;SDS011;6680;53.220;10.402;2023-06-10T01:17:55;5.03;;;3.60;;
13228;SDS011;6680;53.220;10.402;2023-06-10T01:20:24;6.57;;;3.53;;
13228;SDS011;6680;53.220;10.402;2023-06-10T01:22:53;6.33;;;4.07;;
13228;SDS011;6680;53.220;10.402;2023-06-10T01:25:20;5.07;;;3.60;;
13228;SDS011;6680;53.220;10.402;2023-06-10T01:27:52;4.13;;;3.43;;
13228;SDS011;6680;53.220;10.402;2023-06-10T01:30:22;7.87;;;4.00;;
13228;SDS011;6680;53.220;10.402;2023-06-10T01:32:58;4.73;;;3.37;;
13228;SDS011;6680;53.220;10.402;2023-06-10T01:35:27;5.67;;;3.60;;
13228;SDS011;6680;53.220;10.402;2023-06-10T01:37:57;9.43;;;4.13;;
13228;SDS011;6680;53.220;10.402;2023-06-10T01:40:25;7.17;;;3.73;;
13228;SDS011;6680;53.220;10.402;2023-06-10T01:42:54;4.23;;;3.53;;
13228;SDS011;6680;53.220;10.402;2023-06-10T01:45:21;5.77;;;3.43;;
13228;SDS011;6680;53.220;10.402;2023-06-10T01:47:48;4.23;;;3.60;;
13228;SDS011;6680;53.220;10.402;2023-06-10T01:50:15;5.90;;;3.40;;
13228;SDS011;6680;53.220;10.402;2023-06-10T01:52:42;3.97;;;2.70;;
13228;SDS011;6680;53.220;10.402;2023-06-10T01:55:10;9.90;;;3.87;;
13228;SDS011;6680;53.220;10.402;2023-06-10T01:57:36;7.40;;;4.17;;
13228;SDS011;6680;53.220;10.402;2023-06-10T02:00:03;8.70;;;3.40;;
13228;SDS011;6680;53.220;10.402;2023-06-10T02:02:31;6.73;;;3.67;;
13228;SDS011;6680;53.220;10.402;2023-06-10T02:04:57;4.63;;;3.57;;
13228;SDS011;6680;53.220;10.402;2023-06-10T02:07:25;8.40;;;3.37;;
13228;SDS011;6680;53.220;10.402;2023-06-10T02:09:52;4.63;;;3.17;;
13228;SDS011;6680;53.220;10.402;2023-06-10T02:12:20;9.10;;;3.23;;
13228;SDS011;6680;53.220;10.402;2023-06-10T02:14:46;5.43;;;3.40;;
13228;SDS011;6680;53.220;10.402;2023-06-10T02:17:13;4.67;;;3.43;;
13228;SDS011;6680;53.220;10.402;2023-06-10T02:19:40;5.93;;;3.20;;
13228;SDS011;6680;53.220;10.402;2023-06-10T02:22:08;7.17;;;3.30;;
13228;SDS011;6680;53.220;10.402;2023-06-10T02:24:35;4.70;;;3.20;;
13228;SDS011;6680;53.220;10.402;2023-06-10T02:27:03;5.30;;;3.33;;
13228;SDS011;6680;53.220;10.402;2023-06-10T02:29:32;5.73;;;3.70;;
13228;SDS011;6680;53.220;10.402;2023-06-10T02:32:00;7.30;;;3.73;;
13228;SDS011;6680;53.220;10.402;2023-06-10T02:34:28;4.80;;;3.40;;
13228;SDS011;6680;53.220;10.402;2023-06-10T02:36:54;4.97;;;3.83;;
13228;SDS011;6680;53.220;10.402;2023-06-10T02:39:21;11.90;;;3.73;;
13228;SDS011;6680;53.220;10.402;2023-06-10T02:41:48;7.30;;;3.63;;
13228;SDS011;6680;53.220;10.402;2023-06-10T02:44:15;4.93;;;3.50;;
13228;SDS011;6680;53.220;10.402;2023-06-10T02:46:43;5.97;;;3.53;;
13228;SDS011;6680;53.220;10.402;2023-06-10T02:49:10;10.20;;;3.10;;
13228;SDS011;6680;53.220;10.402;2023-06-10T02:51:37;5.63;;;3.17;;
13228;SDS011;6680;53.220;10.402;2023-06-10T02:54:04;3.83;;;2.83;;
13228;SDS011;6680;53.220;10.402;2023-06-10T02:56:31;6.93;;;3.90;;
13228;SDS011;6680;53.220;10.402;2023-06-10T02:58:58;6.00;;;2.93;;
13228;SDS011;6680;53.220;10.402;2023-06-10T03:01:25;6.07;;;3.17;;
13228;SDS011;6680;53.220;10.402;2023-06-10T03:03:54;7.17;;;3.17;;
13228;SDS011;6680;53.220;10.402;2023-06-10T03:06:21;6.00;;;3.40;;
13228;SDS011;6680;53.220;10.402;2023-06-10T03:08:50;5.50;;;3.17;;
13228;SDS011;6680;53.220;10.402;2023-06-10T03:11:16;5.87;;;3.23;;
13228;SDS011;6680;53.220;10.402;2023-06-10T03:13:44;5.53;;;3.57;;
13228;SDS011;6680;53.220;10.402;2023-06-10T03:16:11;5.00;;;3.00;;
13228;SDS011;6680;53.220;10.402;2023-06-10T03:18:38;5.90;;;3.60;;
13228;SDS011;6680;53.220;10.402;2023-06-10T03:21:06;5.13;;;2.87;;
13228;SDS011;6680;53.220;10.402;2023-06-10T03:23:33;4.17;;;3.23;;
13228;SDS011;6680;53.220;10.402;2023-06-10T03:26:00;8.07;;;3.10;;
13228;SDS011;6680;53.220;10.402;2023-06-10T03:28:27;5.13;;;2.73;;
13228;SDS011;6680;53.220;10.402;2023-06-10T03:30:53;3.70;;;2.30;;
13228;SDS011;6680;53.220;10.402;2023-06-10T03:33:20;5.13;;;2.83;;
13228;SDS011;6680;53.220;10.402;2023-06-10T03:35:47;5.53;;;2.80;;
13228;SDS011;6680;53.220;10.402;2023-06-10T03:38:15;5.30;;;2.83;;
13228;SDS011;6680;53.220;10.402;2023-06-10T03:40:42;7.93;;;3.13;;
13228;SDS011;6680;53.220;10.402;2023-06-10T03:43:08;6.13;;;3.27;;
13228;SDS011;6680;53.220;10.402;2023-06-10T03:45:35;5.03;;;2.70;;
13228;SDS011;6680;53.220;10.402;2023-06-10T03:48:03;9.43;;;3.40;;
13228;SDS011;6680;53.220;10.402;2023-06-10T03:50:31;4.40;;;2.93;;
13228;SDS011;6680;53.220;10.402;2023-06-10T03:52:57;4.80;;;2.77;;
13228;SDS011;6680;53.220;10.402;2023-06-10T03:55:26;6.13;;;3.13;;
13228;SDS011;6680;53.220;10.402;2023-06-10T03:57:53;6.77;;;2.93;;
13228;SDS011;6680;53.220;10.402;2023-06-10T04:00:19;8.10;;;3.07;;
13228;SDS011;6680;53.220;10.402;2023-06-10T04:02:47;3.67;;;2.90;;
13228;SDS011;6680;53.220;10.402;2023-06-10T04:05:16;7.73;;;2.77;;
13228;SDS011;6680;53.220;10.402;2023-06-10T04:07:45;5.60;;;2.60;;
13228;SDS011;6680;53.220;10.402;2023-06-10T04:10:13;6.07;;;2.53;;
13228;SDS011;6680;53.220;10.402;2023-06-10T04:12:42;4.07;;;2.93;;
13228;SDS011;6680;53.220;10.402;2023-06-10T04:15:08;7.37;;;3.07;;
13228;SDS011;6680;53.220;10.402;2023-06-10T04:17:35;3.60;;;2.43;;
13228;SDS011;6680;53.220;10.402;2023-06-10T04:20:02;3.87;;;2.73;;
13228;SDS011;6680;53.220;10.402;2023-06-10T04:22:32;5.60;;;2.63;;
13228;SDS011;6680;53.220;10.402;2023-06-10T04:24:59;6.63;;;3.30;;
13228;SDS011;6680;53.220;10.402;2023-06-10T04:27:25;9.17;;;3.30;;
13228;SDS011;6680;53.220;10.402;2023-06-10T04:29:53;3.33;;;2.70;;
13228;SDS011;6680;53.220;10.402;2023-06-10T04:32:20;5.67;;;2.87;;
13228;SDS011;6680;53.220;10.402;2023-06-10T04:34:48;4.90;;;3.00;;
13228;SDS011;6680;53.220;10.402;2023-06-10T04:37:15;5.43;;;3.03;;
13228;SDS011;6680;53.220;10.402;2023-06-10T04:39:42;5.00;;;2.87;;
13228;SDS011;6680;53.220;10.402;2023-06-10T04:42:08;6.93;;;2.93;;
13228;SDS011;6680;53.220;10.402;2023-06-10T04:44:35;4.23;;;2.83;;
13228;SDS011;6680;53.220;10.402;2023-06-10T04:47:04;7.20;;;3.40;;
13228;SDS011;6680;53.220;10.402;2023-06-10T04:49:32;7.60;;;3.03;;
13228;SDS011;6680;53.220;10.402;2023-06-10T04:52:00;7.93;;;2.70;;
13228;SDS011;6680;53.220;10.402;2023-06-10T04:54:29;8.03;;;2.73;;
13228;SDS011;6680;53.220;10.402;2023-06-10T04:56:55;4.50;;;3.10;;
13228;SDS011;6680;53.220;10.402;2023-06-10T04:59:22;4.57;;;2.43;;
13228;SDS011;6680;53.220;10.402;2023-06-10T05:01:49;3.70;;;3.03;;
13228;SDS011;6680;53.220;10.402;2023-06-10T05:04:17;4.47;;;2.50;;
13228;SDS011;6680;53.220;10.402;2023-06-10T05:06:43;3.53;;;2.73;;
13228;SDS011;6680;53.220;10.402;2023-06-10T05:09:10;11.13;;;3.03;;
13228;SDS011;6680;53.220;10.402;2023-06-10T05:11:37;6.70;;;3.10;;
13228;SDS011;6680;53.220;10.402;2023-06-10T05:14:03;4.97;;;3.27;;
13228;SDS011;6680;53.220;10.402;2023-06-10T05:16:30;3.63;;;2.37;;
13228;SDS011;6680;53.220;10.402;2023-06-10T05:18:57;7.10;;;3.40;;
13228;SDS011;6680;53.220;10.402;2023-06-10T05:21:25;6.23;;;2.83;;
13228;SDS011;6680;53.220;10.402;2023-06-10T05:23:51;5.03;;;3.30;;
13228;SDS011;6680;53.220;10.402;2023-06-10T05:26:18;4.77;;;3.03;;
13228;SDS011;6680;53.220;10.402;2023-06-10T05:28:45;4.93;;;2.90;;
13228;SDS011;6680;53.220;10.402;2023-06-10T05:31:12;6.07;;;3.07;;
13228;SDS011;6680;53.220;10.402;2023-06-10T05:33:38;4.17;;;2.80;;
13228;SDS011;6680;53.220;10.402;2023-06-10T05:36:05;4.80;;;2.93;;
13228;SDS011;6680;53.220;10.402;2023-06-10T05:38:33;4.10;;;2.60;;
13228;SDS011;6680;53.220;10.402;2023-06-10T05:41:00;7.00;;;2.80;;
13228;SDS011;6680;53.220;10.402;2023-06-10T05:43:27;7.63;;;3.00;;
13228;SDS011;6680;53.220;10.402;2023-06-10T05:45:53;6.17;;;3.33;;
13228;SDS011;6680;53.220;10.402;2023-06-10T05:48:20;4.20;;;2.87;;
13228;SDS011;6680;53.220;10.402;2023-06-10T05:50:47;8.47;;;2.77;;
13228;SDS011;6680;53.220;10.402;2023-06-10T05:53:14;4.47;;;2.93;;
13228;SDS011;6680;53.220;10.402;2023-06-10T05:55:42;6.67;;;2.83;;
13228;SDS011;6680;53.220;10.402;2023-06-10T05:58:09;4.40;;;2.77;;
13228;SDS011;6680;53.220;10.402;2023-06-10T06:00:37;5.87;;;2.77;;
13228;SDS011;6680;53.220;10.402;2023-06-10T06:03:05;4.93;;;2.90;;
13228;SDS011;6680;53.220;10.402;2023-06-10T06:05:33;5.27;;;3.07;;
13228;SDS011;6680;53.220;10.402;2023-06-10T06:08:00;4.90;;;2.57;;
13228;SDS011;6680;53.220;10.402;2023-06-10T06:10:27;4.43;;;2.57;;
13228;SDS011;6680;53.220;10.402;2023-06-10T06:12:55;3.07;;;2.70;;
13228;SDS011;6680;53.220;10.402;2023-06-10T06:15:22;4.60;;;2.90;;
13228;SDS011;6680;53.220;10.402;2023-06-10T06:17:49;3.90;;;2.63;;
13228;SDS011;6680;53.220;10.402;2023-06-10T06:20:17;5.47;;;2.70;;
13228;SDS011;6680;53.220;10.402;2023-06-10T06:22:44;4.87;;;2.87;;
13228;SDS011;6680;53.220;10.402;2023-06-10T06:25:11;4.90;;;3.17;;
13228;SDS011;6680;53.220;10.402;2023-06-10T06:27:37;2.93;;;2.30;;
13228;SDS011;6680;53.220;10.402;2023-06-10T06:30:06;5.33;;;2.53;;
13228;SDS011;6680;53.220;10.402;2023-06-10T06:32:33;5.83;;;2.67;;
13228;SDS011;6680;53.220;10.402;2023-06-10T06:35:00;6.27;;;2.80;;
13228;SDS011;6680;53.220;10.402;2023-06-10T06:37:27;3.13;;;2.70;;
13228;SDS011;6680;53.220;10.402;2023-06-10T06:39:54;5.57;;;2.80;;
13228;SDS011;6680;53.220;10.402;2023-06-10T06:42:21;5.33;;;3.00;;
13228;SDS011;6680;53.220;10.402;2023-06-10T06:44:47;5.63;;;2.70;;
13228;SDS011;6680;53.220;10.402;2023-06-10T06:47:15;4.40;;;2.97;;
13228;SDS011;6680;53.220;10.402;2023-06-10T06:49:44;3.87;;;2.53;;
13228;SDS011;6680;53.220;10.402;2023-06-10T06:52:11;7.60;;;3.70;;
13228;SDS011;6680;53.220;10.402;2023-06-10T06:54:38;5.07;;;2.63;;
13228;SDS011;6680;53.220;10.402;2023-06-10T06:57:05;4.80;;;2.50;;
13228;SDS011;6680;53.220;10.402;2023-06-10T06:59:33;5.23;;;3.00;;
13228;SDS011;6680;53.220;10.402;2023-06-10T07:02:00;4.80;;;2.70;;
13228;SDS011;6680;53.220;10.402;2023-06-10T07:04:28;2.90;;;2.47;;
13228;SDS011;6680;53.220;10.402;2023-06-10T07:06:55;13.13;;;3.07;;
13228;SDS011;6680;53.220;10.402;2023-06-10T07:09:22;3.83;;;2.60;;
13228;SDS011;6680;53.220;10.402;2023-06-10T07:11:48;8.37;;;2.50;;
13228;SDS011;6680;53.220;10.402;2023-06-10T07:14:15;7.57;;;3.07;;
13228;SDS011;6680;53.220;10.402;2023-06-10T07:16:42;7.97;;;2.43;;
13228;SDS011;6680;53.220;10.402;2023-06-10T07:19:10;5.57;;;2.80;;
13228;SDS011;6680;53.220;10.402;2023-06-10T07:21:38;9.70;;;3.23;;
13228;SDS011;6680;53.220;10.402;2023-06-10T07:24:05;6.77;;;3.00;;
13228;SDS011;6680;53.220;10.402;2023-06-10T07:26:32;3.77;;;2.70;;
13228;SDS011;6680;53.220;10.402;2023-06-10T07:28:59;4.30;;;2.63;;
13228;SDS011;6680;53.220;10.402;2023-06-10T07:31:25;4.93;;;2.63;;
13228;SDS011;6680;53.220;10.402;2023-06-10T07:33:52;10.73;;;2.67;;
13228;SDS011;6680;53.220;10.402;2023-06-10T07:36:19;4.77;;;2.80;;
13228;SDS011;6680;53.220;10.402;2023-06-10T07:38:47;2.60;;;2.40;;
13228;SDS011;6680;53.220;10.402;2023-06-10T07:41:14;7.80;;;2.70;;
13228;SDS011;6680;53.220;10.402;2023-06-10T07:43:42;3.40;;;2.83;;
13228;SDS011;6680;53.220;10.402;2023-06-10T07:46:09;3.97;;;3.13;;
13228;SDS011;6680;53.220;10.402;2023-06-10T07:48:36;4.47;;;2.67;;
13228;SDS011;6680;53.220;10.402;2023-06-10T07:51:03;4.57;;;2.53;;
13228;SDS011;6680;53.220;10.402;2023-06-10T07:53:29;5.23;;;2.07;;
13228;SDS011;6680;53.220;10.402;2023-06-10T07:55:57;4.37;;;2.57;;
13228;SDS011;6680;53.220;10.402;2023-06-10T07:58:24;7.73;;;2.47;;
13228;SDS011;6680;53.220;10.402;2023-06-10T08:00:51;6.23;;;3.10;;
13228;SDS011;6680;53.220;10.402;2023-06-10T08:03:18;7.77;;;3.00;;
13228;SDS011;6680;53.220;10.402;2023-06-10T08:05:44;5.60;;;2.73;;
13228;SDS011;6680;53.220;10.402;2023-06-10T08:08:11;3.97;;;2.53;;
13228;SDS011;6680;53.220;10.402;2023-06-10T08:10:38;4.27;;;2.50;;
13228;SDS011;6680;53.220;10.402;2023-06-10T08:13:07;2.87;;;2.57;;
13228;SDS011;6680;53.220;10.402;2023-06-10T08:15:34;5.63;;;2.33;;
13228;SDS011;6680;53.220;10.402;2023-06-10T08:18:01;4.97;;;2.60;;
13228;SDS011;6680;53.220;10.402;2023-06-10T08:20:27;4.47;;;2.60;;
13228;SDS011;6680;53.220;10.402;2023-06-10T08:22:54;4.23;;;2.70;;
13228;SDS011;6680;53.220;10.402;2023-06-10T08:25:21;5.27;;;3.10;;
13228;SDS011;6680;53.220;10.402;2023-06-10T08:27:48;6.67;;;3.13;;
13228;SDS011;6680;53.220;10.402;2023-06-10T08:30:17;5.50;;;3.00;;
13228;SDS011;6680;53.220;10.402;2023-06-10T08:32:44;6.53;;;2.97;;
13228;SDS011;6680;53.220;10.402;2023-06-10T08:35:10;4.13;;;3.00;;
13228;SDS011;6680;53.220;10.402;2023-06-10T08:37:37;8.23;;;3.00;;
13228;SDS011;6680;53.220;10.402;2023-06-10T08:40:04;5.00;;;2.87;;
13228;SDS011;6680;53.220;10.402;2023-06-10T08:42:33;5.30;;;2.93;;
13228;SDS011;6680;53.220;10.402;2023-06-10T08:45:04;4.87;;;2.77;;
13228;SDS011;6680;53.220;10.402;2023-06-10T08:47:34;4.47;;;2.93;;
13228;SDS011;6680;53.220;10.402;2023-06-10T08:50:03;4.83;;;3.13;;
13228;SDS011;6680;53.220;10.402;2023-06-10T08:52:34;2.97;;;2.67;;
13228;SDS011;6680;53.220;10.402;2023-06-10T08:55:02;4.93;;;3.53;;
13228;SDS011;6680;53.220;10.402;2023-06-10T08:57:31;4.00;;;2.93;;
13228;SDS011;6680;53.220;10.402;2023-06-10T08:59:58;7.43;;;2.97;;
13228;SDS011;6680;53.220;10.402;2023-06-10T09:02:26;7.93;;;3.00;;
13228;SDS011;6680;53.220;10.402;2023-06-10T09:04:54;7.43;;;2.90;;
13228;SDS011;6680;53.220;10.402;2023-06-10T09:07:22;7.77;;;3.27;;
13228;SDS011;6680;53.220;10.402;2023-06-10T09:09:50;7.57;;;2.97;;
13228;SDS011;6680;53.220;10.402;2023-06-10T09:12:18;7.13;;;2.83;;
13228;SDS011;6680;53.220;10.402;2023-06-10T09:14:45;4.07;;;3.20;;
13228;SDS011;6680;53.220;10.402;2023-06-10T09:17:12;10.47;;;3.87;;
13228;SDS011;6680;53.220;10.402;2023-06-10T09:19:38;3.40;;;2.73;;
13228;SDS011;6680;53.220;10.402;2023-06-10T09:22:08;4.77;;;3.50;;
13228;SDS011;6680;53.220;10.402;2023-06-10T09:24:35;5.83;;;3.53;;
13228;SDS011;6680;53.220;10.402;2023-06-10T09:27:03;7.13;;;3.10;;
13228;SDS011;6680;53.220;10.402;2023-06-10T09:29:31;4.43;;;3.50;;
13228;SDS011;6680;53.220;10.402;2023-06-10T09:31:58;4.93;;;3.17;;
13228;SDS011;6680;53.220;10.402;2023-06-10T09:34:25;6.00;;;3.60;;
13228;SDS011;6680;53.220;10.402;2023-06-10T09:36:52;5.00;;;2.87;;
13228;SDS011;6680;53.220;10.402;2023-06-10T09:39:22;9.47;;;3.10;;
13228;SDS011;6680;53.220;10.402;2023-06-10T09:41:49;4.93;;;2.70;;
13228;SDS011;6680;53.220;10.402;2023-06-10T09:44:16;10.60;;;3.47;;
13228;SDS011;6680;53.220;10.402;2023-06-10T09:46:44;3.53;;;3.23;;
13228;SDS011;6680;53.220;10.402;2023-06-10T09:49:12;4.93;;;3.37;;
13228;SDS011;6680;53.220;10.402;2023-06-10T09:51:48;5.00;;;3.70;;
13228;SDS011;6680;53.220;10.402;2023-06-10T09:54:16;6.00;;;3.00;;
13228;SDS011;6680;53.220;10.402;2023-06-10T09:56:47;5.53;;;3.20;;
13228;SDS011;6680;53.220;10.402;2023-06-10T09:59:15;5.63;;;3.20;;
13228;SDS011;6680;53.220;10.402;2023-06-10T10:01:42;5.97;;;3.27;;
13228;SDS011;6680;53.220;10.402;2023-06-10T10:04:08;5.23;;;3.57;;
13228;SDS011;6680;53.220;10.402;2023-06-10T10:06:35;4.63;;;3.50;;
13228;SDS011;6680;53.220;10.402;2023-06-10T10:09:03;6.10;;;3.13;;
13228;SDS011;6680;53.220;10.402;2023-06-10T10:11:30;8.33;;;3.30;;
13228;SDS011;6680;53.220;10.402;2023-06-10T10:14:00;6.97;;;3.63;;
13228;SDS011;6680;53.220;10.402;2023-06-10T10:16:35;4.93;;;4.00;;
13228;SDS011;6680;53.220;10.402;2023-06-10T10:19:06;9.67;;;4.13;;
13228;SDS011;6680;53.220;10.402;2023-06-10T10:21:37;6.30;;;3.47;;
13228;SDS011;6680;53.220;10.402;2023-06-10T10:24:12;3.60;;;3.30;;
13228;SDS011;6680;53.220;10.402;2023-06-10T10:26:43;3.97;;;3.37;;
13228;SDS011;6680;53.220;10.402;2023-06-10T10:29:16;6.60;;;3.73;;
13228;SDS011;6680;53.220;10.402;2023-06-10T10:31:50;7.03;;;3.33;;
13228;SDS011;6680;53.220;10.402;2023-06-10T10:34:19;6.20;;;3.90;;
13228;SDS011;6680;53.220;10.402;2023-06-10T10:36:50;4.53;;;3.93;;
13228;SDS011;6680;53.220;10.402;2023-06-10T10:39:17;7.03;;;4.00;;
13228;SDS011;6680;53.220;10.402;2023-06-10T10:41:45;5.10;;;4.00;;
13228;SDS011;6680;53.220;10.402;2023-06-10T10:44:13;4.10;;;3.67;;
13228;SDS011;6680;53.220;10.402;2023-06-10T10:46:42;6.13;;;3.33;;
13228;SDS011;6680;53.220;10.402;2023-06-10T10:49:10;7.10;;;4.27;;
13228;SDS011;6680;53.220;10.402;2023-06-10T10:51:45;8.30;;;3.43;;
13228;SDS011;6680;53.220;10.402;2023-06-10T10:54:21;3.87;;;3.40;;
13228;SDS011;6680;53.220;10.402;2023-06-10T10:57:13;4.13;;;3.67;;
13228;SDS011;6680;53.220;10.402;2023-06-10T10:59:53;5.73;;;3.50;;
13228;SDS011;6680;53.220;10.402;2023-06-10T11:02:32;5.80;;;3.73;;
13228;SDS011;6680;53.220;10.402;2023-06-10T11:05:00;6.10;;;4.23;;
13228;SDS011;6680;53.220;10.402;2023-06-10T11:07:29;6.80;;;3.70;;
13228;SDS011;6680;53.220;10.402;2023-06-10T11:09:57;6.27;;;3.80;;
13228;SDS011;6680;53.220;10.402;2023-06-10T11:12:25;6.50;;;4.20;;
13228;SDS011;6680;53.220;10.402;2023-06-10T11:14:56;4.37;;;3.97;;
13228;SDS011;6680;53.220;10.402;2023-06-10T11:17:25;3.70;;;3.40;;
13228;SDS011;6680;53.220;10.402;2023-06-10T11:19:52;4.47;;;4.07;;
13228;SDS011;6680;53.220;10.402;2023-06-10T11:22:19;5.27;;;4.40;;
13228;SDS011;6680;53.220;10.402;2023-06-10T11:24:49;4.30;;;3.90;;
13228;SDS011;6680;53.220;10.402;2023-06-10T11:27:17;6.67;;;3.77;;
13228;SDS011;6680;53.220;10.402;2023-06-10T11:29:58;7.07;;;4.77;;
13228;SDS011;6680;53.220;10.402;2023-06-10T11:32:44;5.47;;;4.43;;
13228;SDS011;6680;53.220;10.402;2023-06-10T11:35:14;4.90;;;4.23;;
13228;SDS011;6680;53.220;10.402;2023-06-10T11:37:42;5.80;;;3.93;;
13228;SDS011;6680;53.220;10.402;2023-06-10T11:40:09;4.80;;;4.13;;
13228;SDS011;6680;53.220;10.402;2023-06-10T11:42:38;8.53;;;4.53;;
13228;SDS011;6680;53.220;10.402;2023-06-10T11:45:08;4.70;;;3.83;;
13228;SDS011;6680;53.220;10.402;2023-06-10T11:47:35;4.97;;;3.73;;
13228;SDS011;6680;53.220;10.402;2023-06-10T11:50:02;7.30;;;3.77;;
13228;SDS011;6680;53.220;10.402;2023-06-10T11:52:29;6.07;;;4.50;;
13228;SDS011;6680;53.220;10.402;2023-06-10T11:54:58;6.07;;;3.93;;
13228;SDS011;6680;53.220;10.402;2023-06-10T11:57:25;4.90;;;4.40;;
13228;SDS011;6680;53.220;10.402;2023-06-10T11:59:52;5.97;;;4.43;;
13228;SDS011;6680;53.220;10.402;2023-06-10T12:02:20;7.20;;;4.03;;
13228;SDS011;6680;53.220;10.402;2023-06-10T12:04:47;4.43;;;3.97;;
13228;SDS011;6680;53.220;10.402;2023-06-10T12:07:17;7.77;;;3.83;;
13228;SDS011;6680;53.220;10.402;2023-06-10T12:09:44;4.63;;;3.77;;
13228;SDS011;6680;53.220;10.402;2023-06-10T12:12:11;5.53;;;4.57;;
13228;SDS011;6680;53.220;10.402;2023-06-10T12:14:50;5.30;;;4.10;;
13228;SDS011;6680;53.220;10.402;2023-06-10T12:17:21;5.00;;;4.10;;
13228;SDS011;6680;53.220;10.402;2023-06-10T12:19:49;5.47;;;4.50;;
13228;SDS011;6680;53.220;10.402;2023-06-10T12:22:16;5.83;;;4.57;;
13228;SDS011;6680;53.220;10.402;2023-06-10T12:24:44;4.33;;;3.93;;
13228;SDS011;6680;53.220;10.402;2023-06-10T12:27:11;5.07;;;4.20;;
13228;SDS011;6680;53.220;10.402;2023-06-10T12:29:38;4.57;;;3.77;;
13228;SDS011;6680;53.220;10.402;2023-06-10T12:32:05;5.90;;;3.63;;
13228;SDS011;6680;53.220;10.402;2023-06-10T12:34:38;6.23;;;3.80;;
13228;SDS011;6680;53.220;10.402;2023-06-10T12:37:06;4.70;;;3.97;;
13228;SDS011;6680;53.220;10.402;2023-06-10T12:39:38;5.30;;;4.23;;
13228;SDS011;6680;53.220;10.402;2023-06-10T12:42:05;9.00;;;4.60;;
13228;SDS011;6680;53.220;10.402;2023-06-10T12:44:34;4.63;;;4.23;;
13228;SDS011;6680;53.220;10.402;2023-06-10T12:47:08;5.97;;;4.50;;
13228;SDS011;6680;53.220;10.402;2023-06-10T12:49:38;5.27;;;3.97;;
13228;SDS011;6680;53.220;10.402;2023-06-10T12:52:05;6.90;;;4.13;;
13228;SDS011;6680;53.220;10.402;2023-06-10T12:54:33;5.17;;;4.07;;
13228;SDS011;6680;53.220;10.402;2023-06-10T12:57:00;5.53;;;4.23;;
13228;SDS011;6680;53.220;10.402;2023-06-10T12:59:27;5.80;;;4.17;;
13228;SDS011;6680;53.220;10.402;2023-06-10T13:01:54;5.33;;;3.77;;
13228;SDS011;6680;53.220;10.402;2023-06-10T13:04:21;5.37;;;4.07;;
13228;SDS011;6680;53.220;10.402;2023-06-10T13:06:49;4.50;;;4.10;;
13228;SDS011;6680;53.220;10.402;2023-06-10T13:09:16;7.63;;;4.63;;
13228;SDS011;6680;53.220;10.402;2023-06-10T13:11:43;6.40;;;4.27;;
13228;SDS011;6680;53.220;10.402;2023-06-10T13:14:10;5.80;;;4.50;;
13228;SDS011;6680;53.220;10.402;2023-06-10T13:16:37;7.07;;;4.20;;
13228;SDS011;6680;53.220;10.402;2023-06-10T13:19:04;5.50;;;4.30;;
13228;SDS011;6680;53.220;10.402;2023-06-10T13:21:31;5.33;;;4.37;;
13228;SDS011;6680;53.220;10.402;2023-06-10T13:24:00;4.43;;;3.80;;
13228;SDS011;6680;53.220;10.402;2023-06-10T13:26:27;10.17;;;4.70;;
13228;SDS011;6680;53.220;10.402;2023-06-10T13:28:54;5.37;;;4.40;;
13228;SDS011;6680;53.220;10.402;2023-06-10T13:31:20;6.80;;;4.20;;
13228;SDS011;6680;53.220;10.402;2023-06-10T13:33:47;6.97;;;4.27;;
13228;SDS011;6680;53.220;10.402;2023-06-10T13:36:14;4.97;;;4.47;;
13228;SDS011;6680;53.220;10.402;2023-06-10T13:38:41;4.23;;;3.77;;
13228;SDS011;6680;53.220;10.402;2023-06-10T13:41:09;5.53;;;4.10;;
13228;SDS011;6680;53.220;10.402;2023-06-10T13:43:37;6.27;;;4.53;;
13228;SDS011;6680;53.220;10.402;2023-06-10T13:46:04;5.00;;;4.57;;
13228;SDS011;6680;53.220;10.402;2023-06-10T13:48:31;4.40;;;4.00;;
13228;SDS011;6680;53.220;10.402;2023-06-10T13:50:58;6.13;;;3.60;;
13228;SDS011;6680;53.220;10.402;2023-06-10T13:53:25;7.57;;;4.27;;
13228;SDS011;6680;53.220;10.402;2023-06-10T13:55:52;5.97;;;4.00;;
13228;SDS011;6680;53.220;10.402;2023-06-10T13:58:20;4.53;;;3.87;;
13228;SDS011;6680;53.220;10.402;2023-06-10T14:00:47;5.63;;;4.23;;
13228;SDS011;6680;53.220;10.402;2023-06-10T14:03:13;6.10;;;4.63;;
13228;SDS011;6680;53.220;10.402;2023-06-10T14:05:40;7.47;;;4.20;;
13228;SDS011;6680;53.220;10.402;2023-06-10T14:08:07;7.07;;;4.70;;
13228;SDS011;6680;53.220;10.402;2023-06-10T14:10:34;6.67;;;4.10;;
13228;SDS011;6680;53.220;10.402;2023-06-10T14:13:01;5.20;;;4.27;;
13228;SDS011;6680;53.220;10.402;2023-06-10T14:15:29;5.00;;;4.50;;
13228;SDS011;6680;53.220;10.402;2023-06-10T14:17:57;7.43;;;4.23;;
13228;SDS011;6680;53.220;10.402;2023-06-10T14:20:24;4.23;;;3.80;;
13228;SDS011;6680;53.220;10.402;2023-06-10T14:22:51;4.23;;;3.83;;
13228;SDS011;6680;53.220;10.402;2023-06-10T14:25:18;5.10;;;4.60;;
13228;SDS011;6680;53.220;10.402;2023-06-10T14:27:45;6.40;;;4.47;;
13228;SDS011;6680;53.220;10.402;2023-06-10T14:30:12;7.07;;;4.87;;
13228;SDS011;6680;53.220;10.402;2023-06-10T14:32:40;5.40;;;4.43;;
13228;SDS011;6680;53.220;10.402;2023-06-10T14:35:07;4.20;;;3.80;;
13228;SDS011;6680;53.220;10.402;2023-06-10T14:37:34;5.23;;;4.13;;
13228;SDS011;6680;53.220;10.402;2023-06-10T14:40:01;4.53;;;3.80;;
13228;SDS011;6680;53.220;10.402;2023-06-10T14:42:28;4.47;;;4.00;;
13228;SDS011;6680;53.220;10.402;2023-06-10T14:44:55;4.83;;;4.30;;
13228;SDS011;6680;53.220;10.402;2023-06-10T14:47:22;6.43;;;4.43;;
13228;SDS011;6680;53.220;10.402;2023-06-10T14:49:50;5.20;;;4.67;;
13228;SDS011;6680;53.220;10.402;2023-06-10T14:52:16;5.13;;;4.63;;